sensor_id;sensor_type;location;lat;lon;timestamp;P1;durP1;ratioP1;P2;durP2;ratioP2
14076;SDS011;7114;51.100;13.998;2023-11-18T00:00:03;5.72;;;1.08;;
14076;SDS011;7114;51.100;13.998;2023-11-18T00:02:36;5.55;;;1.20;;
14076;SDS011;7114;51.100;13.998;2023-11-18T00:05:02;5.05;;;1.20;;
14076;SDS011;7114;51.100;13.998;2023-11-18T00:07:29;5.70;;;1.30;;
14076;SDS011;7114;51.100;13.998;2023-11-18T00:09:58;5.35;;;1.27;;
14076;SDS011;7114;51.100;13.998;2023-11-18T00:12:25;5.80;;;1.02;;
14076;SDS011;7114;51.100;13.998;2023-11-18T00:14:51;5.15;;;1.27;;
14076;SDS011;7114;51.100;13.998;2023-11-18T00:17:17;5.70;;;1.27;;
14076;SDS011;7114;51.100;13.998;2023-11-18T00:19:45;6.23;;;1.50;;
14076;SDS011;7114;51.100;13.998;2023-11-18T00:22:12;6.15;;;1.50;;
14076;SDS011;7114;51.100;13.998;2023-11-18T00:24:38;5.65;;;1.30;;
14076;SDS011;7114;51.100;13.998;2023-11-18T00:27:06;6.03;;;1.58;;
14076;SDS011;7114;51.100;13.998;2023-11-18T00:29:32;5.68;;;1.50;;
14076;SDS011;7114;51.100;13.998;2023-11-18T00:31:59;5.93;;;1.57;;
14076;SDS011;7114;51.100;13.998;2023-11-18T00:34:25;6.05;;;1.40;;
14076;SDS011;7114;51.100;13.998;2023-11-18T00:36:51;6.13;;;1.52;;
14076;SDS011;7114;51.100;13.998;2023-11-18T00:39:18;5.90;;;1.33;;
14076;SDS011;7114;51.100;13.998;2023-11-18T00:41:45;5.75;;;1.45;;
14076;SDS011;7114;51.100;13.998;2023-11-18T00:44:13;7.63;;;1.90;;
14076;SDS011;7114;51.100;13.998;2023-11-18T00:46:39;6.43;;;1.70;;
14076;SDS011;7114;51.100;13.998;2023-11-18T00:49:06;6.85;;;1.52;;
14076;SDS011;7114;51.100;13.998;2023-11-18T00:51:32;6.35;;;1.63;;
14076;SDS011;7114;51.100;13.998;2023-11-18T00:53:59;5.75;;;1.45;;
14076;SDS011;7114;51.100;13.998;2023-11-18T00:56:26;6.53;;;1.40;;
14076;SDS011;7114;51.100;13.998;2023-11-18T00:58:53;5.85;;;1.40;;
14076;SDS011;7114;51.100;13.998;2023-11-18T01:01:21;7.32;;;1.67;;
14076;SDS011;7114;51.100;13.998;2023-11-18T01:03:48;5.88;;;1.35;;
14076;SDS011;7114;51.100;13.998;2023-11-18T01:06:14;6.38;;;1.30;;
14076;SDS011;7114;51.100;13.998;2023-11-18T01:08:43;5.60;;;1.60;;
14076;SDS011;7114;51.100;13.998;2023-11-18T01:11:09;7.15;;;1.73;;
14076;SDS011;7114;51.100;13.998;2023-11-18T01:13:36;6.05;;;1.60;;
14076;SDS011;7114;51.100;13.998;2023-11-18T01:16:02;7.25;;;1.90;;
14076;SDS011;7114;51.100;13.998;2023-11-18T01:18:31;6.53;;;1.80;;
14076;SDS011;7114;51.100;13.998;2023-11-18T01:20:57;6.33;;;1.80;;
14076;SDS011;7114;51.100;13.998;2023-11-18T01:23:24;6.80;;;1.85;;
14076;SDS011;7114;51.100;13.998;2023-11-18T01:25:50;7.22;;;2.00;;
14076;SDS011;7114;51.100;13.998;2023-11-18T01:28:17;6.88;;;2.22;;
14076;SDS011;7114;51.100;13.998;2023-11-18T01:30:43;6.22;;;1.83;;
14076;SDS011;7114;51.100;13.998;2023-11-18T01:33:10;6.70;;;2.10;;
14076;SDS011;7114;51.100;13.998;2023-11-18T01:35:38;6.80;;;1.80;;
14076;SDS011;7114;51.100;13.998;2023-11-18T01:38:05;6.90;;;1.88;;
14076;SDS011;7114;51.100;13.998;2023-11-18T01:40:32;7.85;;;2.22;;
14076;SDS011;7114;51.100;13.998;2023-11-18T01:42:59;6.63;;;1.88;;
14076;SDS011;7114;51.100;13.998;2023-11-18T01:45:25;8.33;;;2.23;;
14076;SDS011;7114;51.100;13.998;2023-11-18T01:47:51;7.90;;;2.13;;
14076;SDS011;7114;51.100;13.998;2023-11-18T01:50:19;7.50;;;2.20;;
14076;SDS011;7114;51.100;13.998;2023-11-18T01:52:47;7.78;;;2.50;;
14076;SDS011;7114;51.100;13.998;2023-11-18T01:55:14;6.72;;;1.88;;
14076;SDS011;7114;51.100;13.998;2023-11-18T01:57:42;8.90;;;2.27;;
14076;SDS011;7114;51.100;13.998;2023-11-18T02:00:09;7.93;;;2.25;;
14076;SDS011;7114;51.100;13.998;2023-11-18T02:02:37;6.75;;;2.10;;
14076;SDS011;7114;51.100;13.998;2023-11-18T02:05:04;6.90;;;2.08;;
14076;SDS011;7114;51.100;13.998;2023-11-18T02:07:32;7.75;;;2.25;;
14076;SDS011;7114;51.100;13.998;2023-11-18T02:10:02;7.53;;;2.20;;
14076;SDS011;7114;51.100;13.998;2023-11-18T02:12:33;6.95;;;1.77;;
14076;SDS011;7114;51.100;13.998;2023-11-18T02:15:06;7.57;;;1.83;;
14076;SDS011;7114;51.100;13.998;2023-11-18T02:17:35;6.47;;;1.70;;
14076;SDS011;7114;51.100;13.998;2023-11-18T02:20:05;6.60;;;1.83;;
14076;SDS011;7114;51.100;13.998;2023-11-18T02:22:39;7.60;;;1.93;;
14076;SDS011;7114;51.100;13.998;2023-11-18T02:25:08;10.52;;;2.00;;
14076;SDS011;7114;51.100;13.998;2023-11-18T02:27:37;8.13;;;2.10;;
14076;SDS011;7114;51.100;13.998;2023-11-18T02:30:04;7.38;;;1.90;;
14076;SDS011;7114;51.100;13.998;2023-11-18T02:32:37;7.22;;;2.05;;
14076;SDS011;7114;51.100;13.998;2023-11-18T02:35:08;7.70;;;2.23;;
14076;SDS011;7114;51.100;13.998;2023-11-18T02:37:36;7.60;;;2.22;;
14076;SDS011;7114;51.100;13.998;2023-11-18T02:40:04;7.32;;;2.45;;
14076;SDS011;7114;51.100;13.998;2023-11-18T02:42:38;7.65;;;2.05;;
14076;SDS011;7114;51.100;13.998;2023-11-18T02:45:05;7.45;;;1.98;;
14076;SDS011;7114;51.100;13.998;2023-11-18T02:47:33;7.67;;;2.10;;
14076;SDS011;7114;51.100;13.998;2023-11-18T02:50:00;7.60;;;2.28;;
14076;SDS011;7114;51.100;13.998;2023-11-18T02:52:31;7.90;;;1.95;;
14076;SDS011;7114;51.100;13.998;2023-11-18T02:54:58;7.82;;;2.10;;
14076;SDS011;7114;51.100;13.998;2023-11-18T02:57:24;7.53;;;2.20;;
14076;SDS011;7114;51.100;13.998;2023-11-18T02:59:52;8.13;;;2.23;;
14076;SDS011;7114;51.100;13.998;2023-11-18T03:02:19;7.20;;;2.00;;
14076;SDS011;7114;51.100;13.998;2023-11-18T03:04:46;7.10;;;1.90;;
14076;SDS011;7114;51.100;13.998;2023-11-18T03:07:12;7.20;;;1.90;;
14076;SDS011;7114;51.100;13.998;2023-11-18T03:09:38;7.47;;;2.17;;
14076;SDS011;7114;51.100;13.998;2023-11-18T03:12:05;8.83;;;2.17;;
14076;SDS011;7114;51.100;13.998;2023-11-18T03:14:32;7.38;;;1.98;;
14076;SDS011;7114;51.100;13.998;2023-11-18T03:17:00;8.52;;;2.30;;
14076;SDS011;7114;51.100;13.998;2023-11-18T03:19:28;7.68;;;2.20;;
14076;SDS011;7114;51.100;13.998;2023-11-18T03:21:55;8.00;;;2.20;;
14076;SDS011;7114;51.100;13.998;2023-11-18T03:24:21;7.60;;;2.03;;
14076;SDS011;7114;51.100;13.998;2023-11-18T03:26:47;8.82;;;2.58;;
14076;SDS011;7114;51.100;13.998;2023-11-18T03:29:14;8.20;;;2.42;;
14076;SDS011;7114;51.100;13.998;2023-11-18T03:31:40;8.13;;;2.10;;
14076;SDS011;7114;51.100;13.998;2023-11-18T03:34:10;7.22;;;1.90;;
14076;SDS011;7114;51.100;13.998;2023-11-18T03:36:37;7.83;;;2.20;;
14076;SDS011;7114;51.100;13.998;2023-11-18T03:39:03;7.22;;;2.08;;
14076;SDS011;7114;51.100;13.998;2023-11-18T03:41:31;7.05;;;1.60;;
14076;SDS011;7114;51.100;13.998;2023-11-18T03:43:57;6.55;;;1.88;;
14076;SDS011;7114;51.100;13.998;2023-11-18T03:46:23;7.25;;;2.00;;
14076;SDS011;7114;51.100;13.998;2023-11-18T03:48:50;6.80;;;1.77;;
14076;SDS011;7114;51.100;13.998;2023-11-18T03:51:17;8.07;;;2.10;;
14076;SDS011;7114;51.100;13.998;2023-11-18T03:53:44;6.65;;;1.90;;
14076;SDS011;7114;51.100;13.998;2023-11-18T03:56:10;7.70;;;2.20;;
14076;SDS011;7114;51.100;13.998;2023-11-18T03:58:43;8.52;;;2.10;;
14076;SDS011;7114;51.100;13.998;2023-11-18T04:01:18;8.07;;;1.80;;
14076;SDS011;7114;51.100;13.998;2023-11-18T04:03:45;7.43;;;2.30;;
14076;SDS011;7114;51.100;13.998;2023-11-18T04:06:12;7.28;;;2.10;;
14076;SDS011;7114;51.100;13.998;2023-11-18T04:08:40;7.97;;;1.98;;
14076;SDS011;7114;51.100;13.998;2023-11-18T04:11:08;7.28;;;2.08;;
14076;SDS011;7114;51.100;13.998;2023-11-18T04:13:35;7.30;;;2.00;;
14076;SDS011;7114;51.100;13.998;2023-11-18T04:16:01;7.72;;;2.00;;
14076;SDS011;7114;51.100;13.998;2023-11-18T04:18:28;7.03;;;1.92;;
14076;SDS011;7114;51.100;13.998;2023-11-18T04:20:55;7.45;;;1.98;;
14076;SDS011;7114;51.100;13.998;2023-11-18T04:23:23;9.20;;;2.17;;
14076;SDS011;7114;51.100;13.998;2023-11-18T04:25:51;7.53;;;1.83;;
14076;SDS011;7114;51.100;13.998;2023-11-18T04:28:17;7.75;;;2.17;;
14076;SDS011;7114;51.100;13.998;2023-11-18T04:30:45;7.20;;;1.63;;
14076;SDS011;7114;51.100;13.998;2023-11-18T04:33:12;7.50;;;1.90;;
14076;SDS011;7114;51.100;13.998;2023-11-18T04:35:39;6.95;;;1.92;;
14076;SDS011;7114;51.100;13.998;2023-11-18T04:38:05;9.80;;;2.50;;
14076;SDS011;7114;51.100;13.998;2023-11-18T04:40:32;7.35;;;2.00;;
14076;SDS011;7114;51.100;13.998;2023-11-18T04:43:00;6.78;;;1.90;;
14076;SDS011;7114;51.100;13.998;2023-11-18T04:45:27;7.55;;;2.08;;
14076;SDS011;7114;51.100;13.998;2023-11-18T04:47:53;7.85;;;2.15;;
14076;SDS011;7114;51.100;13.998;2023-11-18T04:50:19;7.37;;;2.13;;
14076;SDS011;7114;51.100;13.998;2023-11-18T04:52:46;7.63;;;1.80;;
14076;SDS011;7114;51.100;13.998;2023-11-18T04:55:12;8.13;;;2.20;;
14076;SDS011;7114;51.100;13.998;2023-11-18T04:57:39;8.43;;;2.20;;
14076;SDS011;7114;51.100;13.998;2023-11-18T05:00:07;8.02;;;2.30;;
14076;SDS011;7114;51.100;13.998;2023-11-18T05:02:36;7.60;;;2.20;;
14076;SDS011;7114;51.100;13.998;2023-11-18T05:05:03;7.70;;;2.38;;
14076;SDS011;7114;51.100;13.998;2023-11-18T05:07:30;7.80;;;2.20;;
14076;SDS011;7114;51.100;13.998;2023-11-18T05:09:57;8.02;;;2.25;;
14076;SDS011;7114;51.100;13.998;2023-11-18T05:12:23;7.40;;;2.08;;
14076;SDS011;7114;51.100;13.998;2023-11-18T05:14:49;7.27;;;1.90;;
14076;SDS011;7114;51.100;13.998;2023-11-18T05:17:17;8.27;;;2.17;;
14076;SDS011;7114;51.100;13.998;2023-11-18T05:19:43;7.70;;;2.10;;
14076;SDS011;7114;51.100;13.998;2023-11-18T05:22:10;7.63;;;1.90;;
14076;SDS011;7114;51.100;13.998;2023-11-18T05:24:36;8.57;;;2.28;;
14076;SDS011;7114;51.100;13.998;2023-11-18T05:27:03;7.67;;;2.37;;
14076;SDS011;7114;51.100;13.998;2023-11-18T05:29:30;7.35;;;2.38;;
14076;SDS011;7114;51.100;13.998;2023-11-18T05:31:56;7.82;;;2.10;;
14076;SDS011;7114;51.100;13.998;2023-11-18T05:34:24;7.78;;;2.20;;
14076;SDS011;7114;51.100;13.998;2023-11-18T05:36:50;8.18;;;2.25;;
14076;SDS011;7114;51.100;13.998;2023-11-18T05:39:19;7.73;;;2.10;;
14076;SDS011;7114;51.100;13.998;2023-11-18T05:41:46;7.88;;;2.25;;
14076;SDS011;7114;51.100;13.998;2023-11-18T05:44:15;8.23;;;2.20;;
14076;SDS011;7114;51.100;13.998;2023-11-18T05:46:44;8.40;;;2.60;;
14076;SDS011;7114;51.100;13.998;2023-11-18T05:49:11;7.10;;;2.05;;
14076;SDS011;7114;51.100;13.998;2023-11-18T05:51:40;7.33;;;2.20;;
14076;SDS011;7114;51.100;13.998;2023-11-18T05:54:06;8.43;;;2.35;;
14076;SDS011;7114;51.100;13.998;2023-11-18T05:56:33;7.90;;;2.50;;
14076;SDS011;7114;51.100;13.998;2023-11-18T05:58:59;8.43;;;2.63;;
14076;SDS011;7114;51.100;13.998;2023-11-18T06:01:28;7.78;;;2.28;;
14076;SDS011;7114;51.100;13.998;2023-11-18T06:03:55;9.07;;;2.60;;
14076;SDS011;7114;51.100;13.998;2023-11-18T06:06:22;7.90;;;2.50;;
14076;SDS011;7114;51.100;13.998;2023-11-18T06:08:50;8.55;;;2.40;;
14076;SDS011;7114;51.100;13.998;2023-11-18T06:11:16;8.13;;;2.70;;
14076;SDS011;7114;51.100;13.998;2023-11-18T06:13:44;8.40;;;2.60;;
14076;SDS011;7114;51.100;13.998;2023-11-18T06:16:15;8.23;;;2.30;;
14076;SDS011;7114;51.100;13.998;2023-11-18T06:18:42;9.93;;;2.58;;
14076;SDS011;7114;51.100;13.998;2023-11-18T06:21:10;8.35;;;2.80;;
14076;SDS011;7114;51.100;13.998;2023-11-18T06:23:37;8.48;;;2.40;;
14076;SDS011;7114;51.100;13.998;2023-11-18T06:26:05;8.73;;;2.67;;
14076;SDS011;7114;51.100;13.998;2023-11-18T06:28:31;7.93;;;2.30;;
14076;SDS011;7114;51.100;13.998;2023-11-18T06:30:58;7.68;;;2.45;;
14076;SDS011;7114;51.100;13.998;2023-11-18T06:33:25;8.60;;;2.78;;
14076;SDS011;7114;51.100;13.998;2023-11-18T06:35:52;9.15;;;2.88;;
14076;SDS011;7114;51.100;13.998;2023-11-18T06:38:19;8.63;;;3.05;;
14076;SDS011;7114;51.100;13.998;2023-11-18T06:40:45;9.73;;;3.10;;
14076;SDS011;7114;51.100;13.998;2023-11-18T06:43:13;13.40;;;4.15;;
14076;SDS011;7114;51.100;13.998;2023-11-18T06:45:42;12.48;;;4.20;;
14076;SDS011;7114;51.100;13.998;2023-11-18T06:48:08;15.32;;;5.22;;
14076;SDS011;7114;51.100;13.998;2023-11-18T06:50:35;15.45;;;5.20;;
14076;SDS011;7114;51.100;13.998;2023-11-18T06:53:04;16.20;;;5.20;;
14076;SDS011;7114;51.100;13.998;2023-11-18T06:55:33;16.05;;;5.32;;
14076;SDS011;7114;51.100;13.998;2023-11-18T06:58:00;16.38;;;5.47;;
14076;SDS011;7114;51.100;13.998;2023-11-18T07:00:28;17.63;;;6.35;;
14076;SDS011;7114;51.100;13.998;2023-11-18T07:02:55;17.85;;;5.97;;
14076;SDS011;7114;51.100;13.998;2023-11-18T07:05:22;20.27;;;7.27;;
14076;SDS011;7114;51.100;13.998;2023-11-18T07:07:49;18.15;;;6.20;;
14076;SDS011;7114;51.100;13.998;2023-11-18T07:10:15;16.30;;;5.50;;
14076;SDS011;7114;51.100;13.998;2023-11-18T07:12:45;14.82;;;5.10;;
14076;SDS011;7114;51.100;13.998;2023-11-18T07:15:12;15.52;;;5.50;;
14076;SDS011;7114;51.100;13.998;2023-11-18T07:17:40;12.23;;;4.80;;
14076;SDS011;7114;51.100;13.998;2023-11-18T07:20:07;14.90;;;4.80;;
14076;SDS011;7114;51.100;13.998;2023-11-18T07:22:36;12.70;;;4.55;;
14076;SDS011;7114;51.100;13.998;2023-11-18T07:25:03;12.00;;;4.75;;
14076;SDS011;7114;51.100;13.998;2023-11-18T07:27:33;13.98;;;5.05;;
14076;SDS011;7114;51.100;13.998;2023-11-18T07:29:59;12.80;;;4.07;;
14076;SDS011;7114;51.100;13.998;2023-11-18T07:32:26;12.02;;;4.15;;
14076;SDS011;7114;51.100;13.998;2023-11-18T07:34:54;13.95;;;4.55;;
14076;SDS011;7114;51.100;13.998;2023-11-18T07:37:21;11.88;;;3.80;;
14076;SDS011;7114;51.100;13.998;2023-11-18T07:39:48;10.50;;;3.88;;
14076;SDS011;7114;51.100;13.998;2023-11-18T07:42:14;11.17;;;3.60;;
14076;SDS011;7114;51.100;13.998;2023-11-18T07:44:43;10.07;;;3.28;;
14076;SDS011;7114;51.100;13.998;2023-11-18T07:47:09;9.40;;;3.28;;
14076;SDS011;7114;51.100;13.998;2023-11-18T07:49:36;10.75;;;3.67;;
14076;SDS011;7114;51.100;13.998;2023-11-18T07:52:04;13.82;;;3.67;;
14076;SDS011;7114;51.100;13.998;2023-11-18T07:54:31;9.97;;;3.27;;
14076;SDS011;7114;51.100;13.998;2023-11-18T07:56:57;9.93;;;3.00;;
14076;SDS011;7114;51.100;13.998;2023-11-18T07:59:23;10.23;;;3.38;;
14076;SDS011;7114;51.100;13.998;2023-11-18T08:01:49;9.20;;;3.05;;
14076;SDS011;7114;51.100;13.998;2023-11-18T08:04:18;9.77;;;3.45;;
14076;SDS011;7114;51.100;13.998;2023-11-18T08:06:45;9.40;;;3.20;;
14076;SDS011;7114;51.100;13.998;2023-11-18T08:09:14;8.85;;;2.90;;
14076;SDS011;7114;51.100;13.998;2023-11-18T08:11:47;9.43;;;2.75;;
14076;SDS011;7114;51.100;13.998;2023-11-18T08:14:14;8.63;;;2.90;;
14076;SDS011;7114;51.100;13.998;2023-11-18T08:16:41;10.43;;;3.42;;
14076;SDS011;7114;51.100;13.998;2023-11-18T08:19:07;9.37;;;3.03;;
14076;SDS011;7114;51.100;13.998;2023-11-18T08:21:34;10.07;;;3.25;;
14076;SDS011;7114;51.100;13.998;2023-11-18T08:24:00;9.32;;;3.25;;
14076;SDS011;7114;51.100;13.998;2023-11-18T08:26:30;9.88;;;3.33;;
14076;SDS011;7114;51.100;13.998;2023-11-18T08:28:56;9.73;;;3.00;;
14076;SDS011;7114;51.100;13.998;2023-11-18T08:31:23;8.40;;;2.97;;
14076;SDS011;7114;51.100;13.998;2023-11-18T08:33:49;9.18;;;2.95;;
14076;SDS011;7114;51.100;13.998;2023-11-18T08:36:19;9.25;;;2.80;;
14076;SDS011;7114;51.100;13.998;2023-11-18T08:38:47;9.30;;;2.90;;
14076;SDS011;7114;51.100;13.998;2023-11-18T08:41:14;8.75;;;3.00;;
14076;SDS011;7114;51.100;13.998;2023-11-18T08:43:42;8.70;;;2.80;;
14076;SDS011;7114;51.100;13.998;2023-11-18T08:46:11;9.48;;;3.20;;
14076;SDS011;7114;51.100;13.998;2023-11-18T08:48:39;8.95;;;2.83;;
14076;SDS011;7114;51.100;13.998;2023-11-18T08:51:06;9.88;;;3.20;;
14076;SDS011;7114;51.100;13.998;2023-11-18T08:53:33;9.57;;;3.30;;
14076;SDS011;7114;51.100;13.998;2023-11-18T08:56:06;9.10;;;2.80;;
14076;SDS011;7114;51.100;13.998;2023-11-18T08:58:38;8.73;;;3.15;;
14076;SDS011;7114;51.100;13.998;2023-11-18T09:01:06;9.57;;;3.10;;
14076;SDS011;7114;51.100;13.998;2023-11-18T09:03:38;9.10;;;3.20;;
14076;SDS011;7114;51.100;13.998;2023-11-18T09:06:08;8.63;;;2.95;;
14076;SDS011;7114;51.100;13.998;2023-11-18T09:08:42;8.70;;;2.90;;
14076;SDS011;7114;51.100;13.998;2023-11-18T09:11:10;9.75;;;3.25;;
14076;SDS011;7114;51.100;13.998;2023-11-18T09:13:39;9.77;;;3.15;;
14076;SDS011;7114;51.100;13.998;2023-11-18T09:16:09;8.82;;;3.03;;
14076;SDS011;7114;51.100;13.998;2023-11-18T09:18:36;9.80;;;3.20;;
14076;SDS011;7114;51.100;13.998;2023-11-18T09:21:04;8.60;;;2.80;;
14076;SDS011;7114;51.100;13.998;2023-11-18T09:23:31;8.40;;;3.10;;
14076;SDS011;7114;51.100;13.998;2023-11-18T09:25:59;10.30;;;3.30;;
14076;SDS011;7114;51.100;13.998;2023-11-18T09:28:26;8.50;;;2.75;;
14076;SDS011;7114;51.100;13.998;2023-11-18T09:30:54;9.02;;;2.85;;
14076;SDS011;7114;51.100;13.998;2023-11-18T09:33:24;8.93;;;3.10;;
14076;SDS011;7114;51.100;13.998;2023-11-18T09:35:53;9.48;;;3.35;;
14076;SDS011;7114;51.100;13.998;2023-11-18T09:38:23;8.55;;;3.03;;
14076;SDS011;7114;51.100;13.998;2023-11-18T09:40:50;9.40;;;3.17;;
14076;SDS011;7114;51.100;13.998;2023-11-18T09:43:18;10.75;;;3.50;;
14076;SDS011;7114;51.100;13.998;2023-11-18T09:45:47;9.33;;;3.43;;
14076;SDS011;7114;51.100;13.998;2023-11-18T09:48:14;9.70;;;3.83;;
14076;SDS011;7114;51.100;13.998;2023-11-18T09:50:48;10.02;;;3.60;;
14076;SDS011;7114;51.100;13.998;2023-11-18T09:53:16;10.07;;;3.60;;
14076;SDS011;7114;51.100;13.998;2023-11-18T09:55:45;8.48;;;2.75;;
14076;SDS011;7114;51.100;13.998;2023-11-18T09:58:20;8.50;;;3.07;;
14076;SDS011;7114;51.100;13.998;2023-11-18T10:00:49;8.70;;;2.65;;
14076;SDS011;7114;51.100;13.998;2023-11-18T10:03:17;8.18;;;2.65;;
14076;SDS011;7114;51.100;13.998;2023-11-18T10:05:43;8.20;;;2.58;;
14076;SDS011;7114;51.100;13.998;2023-11-18T10:08:11;8.38;;;2.60;;
14076;SDS011;7114;51.100;13.998;2023-11-18T10:10:41;8.67;;;3.10;;
14076;SDS011;7114;51.100;13.998;2023-11-18T10:13:11;8.65;;;2.65;;
14076;SDS011;7114;51.100;13.998;2023-11-18T10:15:46;8.10;;;2.70;;
14076;SDS011;7114;51.100;13.998;2023-11-18T10:18:17;11.23;;;2.33;;
14076;SDS011;7114;51.100;13.998;2023-11-18T10:20:48;13.07;;;2.33;;
14076;SDS011;7114;51.100;13.998;2023-11-18T10:23:17;18.20;;;4.07;;
14076;SDS011;7114;51.100;13.998;2023-11-18T10:25:45;14.50;;;3.92;;
14076;SDS011;7114;51.100;13.998;2023-11-18T10:28:20;13.40;;;3.10;;
14076;SDS011;7114;51.100;13.998;2023-11-18T10:30:48;12.23;;;2.78;;
14076;SDS011;7114;51.100;13.998;2023-11-18T10:33:15;10.55;;;3.20;;
14076;SDS011;7114;51.100;13.998;2023-11-18T10:35:49;8.33;;;2.80;;
14076;SDS011;7114;51.100;13.998;2023-11-18T10:38:18;8.32;;;2.80;;
14076;SDS011;7114;51.100;13.998;2023-11-18T10:40:45;21.38;;;3.55;;
14076;SDS011;7114;51.100;13.998;2023-11-18T10:43:11;10.02;;;2.60;;
14076;SDS011;7114;51.100;13.998;2023-11-18T10:45:40;10.30;;;2.40;;
14076;SDS011;7114;51.100;13.998;2023-11-18T10:48:07;8.17;;;1.83;;
14076;SDS011;7114;51.100;13.998;2023-11-18T10:50:33;6.20;;;1.52;;
14076;SDS011;7114;51.100;13.998;2023-11-18T10:53:00;7.55;;;2.00;;
14076;SDS011;7114;51.100;13.998;2023-11-18T10:55:35;7.45;;;1.90;;
14076;SDS011;7114;51.100;13.998;2023-11-18T10:58:02;6.72;;;1.90;;
14076;SDS011;7114;51.100;13.998;2023-11-18T11:00:30;6.87;;;1.47;;
14076;SDS011;7114;51.100;13.998;2023-11-18T11:03:12;7.40;;;1.90;;
14076;SDS011;7114;51.100;13.998;2023-11-18T11:05:39;8.00;;;1.50;;
14076;SDS011;7114;51.100;13.998;2023-11-18T11:08:07;9.38;;;2.28;;
14076;SDS011;7114;51.100;13.998;2023-11-18T11:10:39;9.07;;;1.50;;
14076;SDS011;7114;51.100;13.998;2023-11-18T11:13:07;6.33;;;1.63;;
14076;SDS011;7114;51.100;13.998;2023-11-18T11:15:36;7.32;;;1.83;;
14076;SDS011;7114;51.100;13.998;2023-11-18T11:18:08;6.85;;;1.80;;
14076;SDS011;7114;51.100;13.998;2023-11-18T11:20:41;7.85;;;2.00;;
14076;SDS011;7114;51.100;13.998;2023-11-18T11:23:11;6.68;;;1.70;;
14076;SDS011;7114;51.100;13.998;2023-11-18T11:25:48;6.13;;;1.67;;
14076;SDS011;7114;51.100;13.998;2023-11-18T11:28:20;6.22;;;1.73;;
14076;SDS011;7114;51.100;13.998;2023-11-18T11:30:50;7.60;;;2.13;;
14076;SDS011;7114;51.100;13.998;2023-11-18T11:33:19;7.28;;;1.90;;
14076;SDS011;7114;51.100;13.998;2023-11-18T11:35:53;6.10;;;1.77;;
14076;SDS011;7114;51.100;13.998;2023-11-18T11:38:22;7.00;;;1.87;;
14076;SDS011;7114;51.100;13.998;2023-11-18T11:40:50;14.63;;;2.65;;
14076;SDS011;7114;51.100;13.998;2023-11-18T11:43:18;21.42;;;2.72;;
14076;SDS011;7114;51.100;13.998;2023-11-18T11:45:46;57.70;;;5.20;;
14076;SDS011;7114;51.100;13.998;2023-11-18T11:48:13;43.42;;;4.88;;
14076;SDS011;7114;51.100;13.998;2023-11-18T11:50:52;18.63;;;2.73;;
14076;SDS011;7114;51.100;13.998;2023-11-18T11:53:22;17.25;;;2.58;;
14076;SDS011;7114;51.100;13.998;2023-11-18T11:55:53;9.48;;;2.00;;
14076;SDS011;7114;51.100;13.998;2023-11-18T11:58:30;8.65;;;2.58;;
14076;SDS011;7114;51.100;13.998;2023-11-18T12:00:58;7.95;;;2.25;;
14076;SDS011;7114;51.100;13.998;2023-11-18T12:03:26;8.90;;;2.23;;
14076;SDS011;7114;51.100;13.998;2023-11-18T12:06:01;11.95;;;2.67;;
14076;SDS011;7114;51.100;13.998;2023-11-18T12:08:32;10.00;;;2.67;;
14076;SDS011;7114;51.100;13.998;2023-11-18T12:11:04;12.43;;;3.40;;
14076;SDS011;7114;51.100;13.998;2023-11-18T12:13:34;9.85;;;3.30;;
14076;SDS011;7114;51.100;13.998;2023-11-18T12:16:04;13.50;;;3.10;;
14076;SDS011;7114;51.100;13.998;2023-11-18T12:18:35;8.05;;;2.83;;
14076;SDS011;7114;51.100;13.998;2023-11-18T12:21:02;9.30;;;3.40;;
14076;SDS011;7114;51.100;13.998;2023-11-18T12:23:29;7.72;;;2.92;;
14076;SDS011;7114;51.100;13.998;2023-11-18T12:25:57;7.80;;;2.85;;
14076;SDS011;7114;51.100;13.998;2023-11-18T12:28:28;11.33;;;3.63;;
14076;SDS011;7114;51.100;13.998;2023-11-18T12:30:56;10.07;;;3.80;;
14076;SDS011;7114;51.100;13.998;2023-11-18T12:33:23;10.25;;;4.10;;
14076;SDS011;7114;51.100;13.998;2023-11-18T12:35:59;10.50;;;4.10;;
14076;SDS011;7114;51.100;13.998;2023-11-18T12:41:42;10.60;;;3.53;;
14076;SDS011;7114;51.100;13.998;2023-11-18T12:44:15;11.43;;;3.80;;
14076;SDS011;7114;51.100;13.998;2023-11-18T12:46:57;10.68;;;3.40;;
14076;SDS011;7114;51.100;13.998;2023-11-18T12:49:36;12.43;;;3.42;;
14076;SDS011;7114;51.100;13.998;2023-11-18T12:52:06;9.48;;;3.20;;
14076;SDS011;7114;51.100;13.998;2023-11-18T12:54:33;11.17;;;2.93;;
14076;SDS011;7114;51.100;13.998;2023-11-18T12:57:02;10.20;;;3.20;;
14076;SDS011;7114;51.100;13.998;2023-11-18T12:59:33;11.18;;;3.78;;
14076;SDS011;7114;51.100;13.998;2023-11-18T13:01:59;11.57;;;3.53;;
14076;SDS011;7114;51.100;13.998;2023-11-18T13:04:29;9.05;;;2.90;;
14076;SDS011;7114;51.100;13.998;2023-11-18T13:06:55;8.50;;;2.63;;
14076;SDS011;7114;51.100;13.998;2023-11-18T13:09:23;9.77;;;2.47;;
14076;SDS011;7114;51.100;13.998;2023-11-18T13:11:53;11.07;;;2.70;;
14076;SDS011;7114;51.100;13.998;2023-11-18T13:14:22;12.50;;;2.85;;
14076;SDS011;7114;51.100;13.998;2023-11-18T13:16:52;8.00;;;2.20;;
14076;SDS011;7114;51.100;13.998;2023-11-18T13:19:24;7.13;;;1.90;;
14076;SDS011;7114;51.100;13.998;2023-11-18T13:21:55;8.40;;;2.17;;
14076;SDS011;7114;51.100;13.998;2023-11-18T13:24:22;7.28;;;2.20;;
14076;SDS011;7114;51.100;13.998;2023-11-18T13:26:49;7.07;;;1.90;;
14076;SDS011;7114;51.100;13.998;2023-11-18T13:29:15;8.52;;;2.05;;
14076;SDS011;7114;51.100;13.998;2023-11-18T13:31:41;6.87;;;1.60;;
14076;SDS011;7114;51.100;13.998;2023-11-18T13:34:10;6.63;;;1.50;;
14076;SDS011;7114;51.100;13.998;2023-11-18T13:36:36;6.57;;;1.58;;
14076;SDS011;7114;51.100;13.998;2023-11-18T13:39:03;6.78;;;1.83;;
14076;SDS011;7114;51.100;13.998;2023-11-18T13:41:32;6.35;;;1.88;;
14076;SDS011;7114;51.100;13.998;2023-11-18T13:43:58;7.43;;;1.80;;
14076;SDS011;7114;51.100;13.998;2023-11-18T13:46:25;6.32;;;1.90;;
14076;SDS011;7114;51.100;13.998;2023-11-18T13:48:52;5.90;;;1.60;;
14076;SDS011;7114;51.100;13.998;2023-11-18T13:51:20;5.80;;;1.65;;
14076;SDS011;7114;51.100;13.998;2023-11-18T13:53:47;6.18;;;1.70;;
14076;SDS011;7114;51.100;13.998;2023-11-18T13:56:13;5.70;;;1.47;;
14076;SDS011;7114;51.100;13.998;2023-11-18T13:58:42;5.43;;;1.55;;
14076;SDS011;7114;51.100;13.998;2023-11-18T14:01:10;5.80;;;1.70;;
14076;SDS011;7114;51.100;13.998;2023-11-18T14:03:38;6.18;;;1.35;;
14076;SDS011;7114;51.100;13.998;2023-11-18T14:06:08;5.47;;;1.58;;
14076;SDS011;7114;51.100;13.998;2023-11-18T14:08:37;5.83;;;1.63;;
14076;SDS011;7114;51.100;13.998;2023-11-18T14:11:04;6.88;;;1.90;;
14076;SDS011;7114;51.100;13.998;2023-11-18T14:13:31;7.35;;;2.08;;
14076;SDS011;7114;51.100;13.998;2023-11-18T14:15:59;6.07;;;1.80;;
14076;SDS011;7114;51.100;13.998;2023-11-18T14:18:26;6.30;;;1.63;;
14076;SDS011;7114;51.100;13.998;2023-11-18T14:20:53;5.60;;;1.50;;
14076;SDS011;7114;51.100;13.998;2023-11-18T14:23:19;5.75;;;1.45;;
14076;SDS011;7114;51.100;13.998;2023-11-18T14:25:48;6.22;;;1.60;;
14076;SDS011;7114;51.100;13.998;2023-11-18T14:28:15;6.00;;;1.60;;
14076;SDS011;7114;51.100;13.998;2023-11-18T14:30:41;5.38;;;1.42;;
14076;SDS011;7114;51.100;13.998;2023-11-18T14:33:07;5.37;;;1.40;;
14076;SDS011;7114;51.100;13.998;2023-11-18T14:35:34;7.10;;;1.60;;
14076;SDS011;7114;51.100;13.998;2023-11-18T14:37:59;5.60;;;1.50;;
14076;SDS011;7114;51.100;13.998;2023-11-18T14:40:26;6.25;;;1.95;;
14076;SDS011;7114;51.100;13.998;2023-11-18T14:42:54;5.95;;;1.73;;
14076;SDS011;7114;51.100;13.998;2023-11-18T14:45:21;7.13;;;1.80;;
14076;SDS011;7114;51.100;13.998;2023-11-18T14:47:47;5.82;;;1.50;;
14076;SDS011;7114;51.100;13.998;2023-11-18T14:50:18;6.63;;;1.70;;
14076;SDS011;7114;51.100;13.998;2023-11-18T14:52:45;6.53;;;1.88;;